New Harmony, Texas
Current Conditions -  °F | °C
As of 2:35 AM on Friday 19 Dec 2014 (Local Time) from KOCH Reporting Station
Overcast Overcast  
Wind Chill: 50°   Ceiling: 500
Heat Index: 50°   Visibility: 7mi
Dew Point: 46°   Wind: 5mph
Humidity: 87%   Direction: 60°ENE
Pressure: 30.1"   Gusts: NA
Location:  31.7022°N, 93.9592°W
Report Text: KOCH 190835Z AUTO 06004KT 7SM OVC005 10/08 A3010 RMK AO1
Loading
Personal Weather Stations






























Interactive Weather Map New forecast layout! Learn more

10-Day Weather Forecast

Advertisements
Track Severe Weather on mobile